createdAt,value
2017-09-04T00:02:09.079Z,4.13
2017-09-04T00:04:37.154Z,5.33
2017-09-04T00:07:05.235Z,5.20
2017-09-04T00:09:33.319Z,4.70
2017-09-04T00:12:01.399Z,5.00
2017-09-04T00:14:29.484Z,5.63
2017-09-04T00:16:57.564Z,5.67
2017-09-04T00:19:25.627Z,4.47
2017-09-04T00:21:53.712Z,5.80
2017-09-04T00:24:21.779Z,5.30
2017-09-04T00:26:49.872Z,5.87
2017-09-04T00:29:17.939Z,6.27
2017-09-04T00:31:46.043Z,5.53
2017-09-04T00:34:14.148Z,5.27
2017-09-04T00:36:42.247Z,6.37
2017-09-04T00:39:10.318Z,8.70
2017-09-04T00:41:38.388Z,8.17
2017-09-04T00:44:06.466Z,8.53
2017-09-04T00:46:34.534Z,9.90
2017-09-04T00:49:02.631Z,10.77
2017-09-04T00:51:30.719Z,10.40
2017-09-04T00:53:58.800Z,9.63
2017-09-04T00:56:26.875Z,9.43
2017-09-04T00:58:55.129Z,10.40
2017-09-04T01:01:23.203Z,9.83
2017-09-04T01:03:51.314Z,10.20
2017-09-04T01:06:19.383Z,8.73
2017-09-04T01:08:47.467Z,7.70
2017-09-04T01:11:15.531Z,6.70
2017-09-04T01:13:43.610Z,7.20
2017-09-04T01:16:11.686Z,6.90
2017-09-04T01:18:39.763Z,6.77
2017-09-04T01:21:08.291Z,7.60
2017-09-04T01:23:36.363Z,8.20
2017-09-04T01:26:04.434Z,7.60
2017-09-04T01:28:32.519Z,9.50
2017-09-04T01:31:00.629Z,9.07
2017-09-04T01:33:28.714Z,10.07
2017-09-04T01:35:56.792Z,8.97
2017-09-04T01:38:24.903Z,8.57
2017-09-04T01:40:52.975Z,8.07
2017-09-04T01:43:21.042Z,8.00
2017-09-04T01:45:49.155Z,10.03
2017-09-04T01:48:17.241Z,8.57
2017-09-04T01:50:45.318Z,6.10
2017-09-04T01:53:13.409Z,6.27
2017-09-04T01:55:41.474Z,6.63
2017-09-04T01:58:09.543Z,6.57
2017-09-04T02:00:37.627Z,6.43
2017-09-04T02:03:05.691Z,8.03
2017-09-04T02:05:33.782Z,7.17
2017-09-04T02:08:01.851Z,6.90
2017-09-04T02:10:29.945Z,5.50
2017-09-04T02:12:58.021Z,7.07
2017-09-04T02:15:26.100Z,7.97
2017-09-04T02:17:54.183Z,9.50
2017-09-04T02:20:22.275Z,10.37
2017-09-04T02:22:50.339Z,9.67
2017-09-04T02:25:28.382Z,9.80
2017-09-04T02:27:56.469Z,8.30
2017-09-04T02:30:24.556Z,7.37
2017-09-04T02:32:52.628Z,6.50
2017-09-04T02:35:20.777Z,7.40
2017-09-04T02:37:48.873Z,6.90
2017-09-04T02:40:16.945Z,6.70
2017-09-04T02:42:45.019Z,6.33
2017-09-04T02:45:13.104Z,7.17
2017-09-04T02:47:41.180Z,6.70
2017-09-04T02:50:09.263Z,8.63
2017-09-04T02:52:37.331Z,8.20
2017-09-04T02:55:05.404Z,8.40
2017-09-04T02:57:33.495Z,7.47
2017-09-04T03:00:01.565Z,8.90
2017-09-04T03:02:29.649Z,9.30
2017-09-04T03:04:57.723Z,9.27
2017-09-04T03:07:25.800Z,9.63
2017-09-04T03:09:53.867Z,8.00
2017-09-04T03:12:21.950Z,7.50
2017-09-04T03:14:50.029Z,7.40
2017-09-04T03:17:18.108Z,6.53
2017-09-04T03:19:46.191Z,11.03
2017-09-04T03:22:14.267Z,10.37
2017-09-04T03:24:42.335Z,11.10
2017-09-04T03:27:10.423Z,10.13
2017-09-04T03:29:38.499Z,7.70
2017-09-04T03:32:06.576Z,10.80
2017-09-04T03:34:34.639Z,9.43
2017-09-04T03:37:02.759Z,10.93
2017-09-04T03:39:30.839Z,11.77
2017-09-04T03:41:58.923Z,16.30
2017-09-04T03:44:27.763Z,18.20
2017-09-04T03:46:55.857Z,18.83
2017-09-04T03:49:23.924Z,19.60
2017-09-04T03:51:52.006Z,23.80
2017-09-04T03:54:20.090Z,20.47
2017-09-04T03:56:48.167Z,19.37
2017-09-04T03:59:16.235Z,23.30
2017-09-04T04:01:44.318Z,17.37
2017-09-04T04:04:12.393Z,16.40
2017-09-04T04:06:40.460Z,14.70
2017-09-04T04:09:08.543Z,14.30
2017-09-04T04:11:36.620Z,12.27
2017-09-04T04:14:04.772Z,14.40
2017-09-04T04:16:32.851Z,15.00
2017-09-04T04:19:00.935Z,13.00
2017-09-04T04:21:29.019Z,13.20
2017-09-04T04:23:57.100Z,12.27
2017-09-04T04:26:25.172Z,13.87
2017-09-04T04:28:53.263Z,17.70
2017-09-04T04:31:21.334Z,21.33
2017-09-04T04:33:49.423Z,18.60
2017-09-04T04:36:17.503Z,17.00
2017-09-04T04:38:45.591Z,14.30
2017-09-04T04:41:13.672Z,14.60
2017-09-04T04:43:41.756Z,17.20
2017-09-04T04:46:09.825Z,16.37
2017-09-04T04:48:37.911Z,14.10
2017-09-04T04:51:05.981Z,15.37
2017-09-04T04:53:34.063Z,16.53
2017-09-04T04:56:02.142Z,18.07
2017-09-04T04:58:30.228Z,17.80
2017-09-04T05:00:58.305Z,17.00
2017-09-04T05:03:26.391Z,19.03
2017-09-04T05:05:54.464Z,21.13
2017-09-04T05:08:22.560Z,19.93
2017-09-04T05:10:50.644Z,24.47
2017-09-04T05:13:18.724Z,16.73
2017-09-04T05:15:46.850Z,18.23
2017-09-04T05:18:14.920Z,15.37
2017-09-04T05:20:43.008Z,14.77
2017-09-04T05:23:11.080Z,14.60
2017-09-04T05:25:39.168Z,19.33
2017-09-04T05:28:07.240Z,18.40
2017-09-04T05:30:35.332Z,18.90
2017-09-04T05:33:03.395Z,20.33
2017-09-04T05:35:31.492Z,16.90
2017-09-04T05:37:59.569Z,17.77
2017-09-04T05:40:27.663Z,16.17
2017-09-04T05:42:55.740Z,17.50
2017-09-04T05:45:23.818Z,14.37
2017-09-04T05:47:51.901Z,14.50
2017-09-04T05:50:19.977Z,15.43
2017-09-04T05:52:48.052Z,17.27
2017-09-04T05:55:16.168Z,14.10
2017-09-04T05:57:44.249Z,15.43
2017-09-04T06:00:12.338Z,13.63
2017-09-04T06:02:40.417Z,13.13
2017-09-04T06:05:08.515Z,13.67
2017-09-04T06:07:36.586Z,12.30
2017-09-04T06:10:04.670Z,10.90
2017-09-04T06:12:32.754Z,11.57
2017-09-04T06:15:00.845Z,11.07
2017-09-04T06:17:28.924Z,11.00
2017-09-04T06:19:57.008Z,11.23
2017-09-04T06:22:25.141Z,12.50
2017-09-04T06:24:53.215Z,10.73
2017-09-04T06:27:21.295Z,11.77
2017-09-04T06:29:49.371Z,11.50
2017-09-04T06:32:17.464Z,23.33
2017-09-04T06:34:45.547Z,12.40
2017-09-04T06:37:13.654Z,12.50
2017-09-04T06:39:41.752Z,16.23
2017-09-04T06:42:09.847Z,16.67
2017-09-04T06:44:37.927Z,14.13
2017-09-04T06:47:06.025Z,13.03
2017-09-04T06:49:34.124Z,11.70
2017-09-04T06:52:02.211Z,10.93
2017-09-04T06:54:30.335Z,12.67
2017-09-04T06:56:59.088Z,12.10
2017-09-04T06:59:27.169Z,10.83
2017-09-04T07:01:55.259Z,10.80
2017-09-04T07:04:23.342Z,13.23
2017-09-04T07:06:51.427Z,10.80
2017-09-04T07:09:20.042Z,11.47
2017-09-04T07:11:48.138Z,12.03
2017-09-04T07:14:16.207Z,12.50
2017-09-04T07:16:44.292Z,9.77
2017-09-04T07:19:12.371Z,11.17
2017-09-04T07:21:40.457Z,12.00
2017-09-04T07:24:08.545Z,12.43
2017-09-04T07:26:36.643Z,10.97
2017-09-04T07:29:04.800Z,11.43
2017-09-04T07:31:32.901Z,11.90
2017-09-04T07:34:00.989Z,10.80
2017-09-04T07:36:29.283Z,11.57
2017-09-04T07:38:57.395Z,9.73
2017-09-04T07:41:25.475Z,10.67
2017-09-04T07:43:53.600Z,11.70
2017-09-04T07:46:21.671Z,11.33
2017-09-04T07:48:50.584Z,10.77
2017-09-04T07:51:18.658Z,12.63
2017-09-04T07:53:46.755Z,13.17
2017-09-04T07:56:14.832Z,14.70
2017-09-04T07:58:42.937Z,12.13
2017-09-04T08:01:11.037Z,11.87
2017-09-04T08:03:39.114Z,12.17
2017-09-04T08:06:07.194Z,13.00
2017-09-04T08:08:35.283Z,12.53
2017-09-04T08:11:03.355Z,12.53
2017-09-04T08:13:31.468Z,13.50
2017-09-04T08:15:59.547Z,12.13
2017-09-04T08:18:27.623Z,14.30
2017-09-04T08:20:55.695Z,13.33
2017-09-04T08:23:23.791Z,12.27
2017-09-04T08:25:51.894Z,14.10
2017-09-04T08:28:19.983Z,13.20
2017-09-04T08:30:48.084Z,13.03
2017-09-04T08:33:16.167Z,13.30
2017-09-04T08:35:44.244Z,13.97
2017-09-04T08:38:12.366Z,12.17
2017-09-04T08:40:40.452Z,12.90
2017-09-04T08:43:08.571Z,12.20
2017-09-04T08:45:36.672Z,12.50
2017-09-04T08:48:04.750Z,11.73
2017-09-04T08:50:32.843Z,13.20
2017-09-04T08:53:00.932Z,11.27
2017-09-04T08:55:29.028Z,11.97
2017-09-04T08:57:57.111Z,11.60
2017-09-04T09:00:25.191Z,11.40
2017-09-04T09:02:53.263Z,12.07
2017-09-04T09:05:21.355Z,11.23
2017-09-04T09:07:49.439Z,11.30
2017-09-04T09:10:17.534Z,11.00
2017-09-04T09:12:45.618Z,10.30
2017-09-04T09:15:13.702Z,10.20
2017-09-04T09:17:41.779Z,8.90
2017-09-04T09:20:09.855Z,8.87
2017-09-04T09:22:37.939Z,9.50
2017-09-04T09:25:06.036Z,9.47
2017-09-04T09:27:34.119Z,9.33
2017-09-04T09:30:02.211Z,9.53
2017-09-04T09:32:30.285Z,8.90
2017-09-04T09:34:58.381Z,8.47
2017-09-04T09:37:26.439Z,7.70
2017-09-04T09:39:54.512Z,8.63
2017-09-04T09:42:22.588Z,9.33
2017-09-04T09:44:50.683Z,8.47
2017-09-04T09:47:19.251Z,7.93
2017-09-04T09:49:47.326Z,8.43
2017-09-04T09:52:15.402Z,7.60
2017-09-04T09:54:43.471Z,7.50
2017-09-04T09:57:11.563Z,7.37
2017-09-04T09:59:39.638Z,7.90
2017-09-04T10:02:07.715Z,8.53
2017-09-04T10:04:35.820Z,8.57
2017-09-04T10:07:03.908Z,7.30
2017-09-04T10:09:32.523Z,6.40
2017-09-04T10:12:00.651Z,6.90
2017-09-04T10:14:28.773Z,6.10
2017-09-04T10:16:56.924Z,5.90
2017-09-04T10:19:24.990Z,5.40
2017-09-04T10:21:53.104Z,5.17
2017-09-04T10:24:21.185Z,8.90
2017-09-04T10:26:49.264Z,4.80
2017-09-04T10:29:17.329Z,5.17
2017-09-04T10:31:45.430Z,4.83
2017-09-04T10:34:13.496Z,6.30
2017-09-04T10:36:41.577Z,5.90
2017-09-04T10:39:09.664Z,4.57
2017-09-04T10:41:37.740Z,4.10
2017-09-04T10:44:05.811Z,4.43
2017-09-04T10:46:33.883Z,3.80
2017-09-04T10:49:01.989Z,4.10
2017-09-04T10:51:30.071Z,4.20
2017-09-04T10:53:58.135Z,5.60
2017-09-04T10:56:26.219Z,4.80
2017-09-04T10:58:54.288Z,4.70
2017-09-04T11:01:22.369Z,4.40
2017-09-04T11:03:50.435Z,3.93
2017-09-04T11:06:18.499Z,3.77
2017-09-04T11:08:46.611Z,3.97
2017-09-04T11:11:14.683Z,4.23
2017-09-04T11:13:42.761Z,3.70
2017-09-04T11:16:10.841Z,3.37
2017-09-04T11:18:39.704Z,3.90
2017-09-04T11:21:07.788Z,3.30
2017-09-04T11:23:35.864Z,3.70
2017-09-04T11:26:03.940Z,3.70
2017-09-04T11:28:32.032Z,3.80
2017-09-04T11:31:00.119Z,4.00
2017-09-04T11:33:28.792Z,3.43
2017-09-04T11:35:56.879Z,4.20
2017-09-04T11:38:24.961Z,4.17
2017-09-04T11:40:53.053Z,3.70
2017-09-04T11:43:21.132Z,4.40
2017-09-04T11:45:50.188Z,3.60
2017-09-04T11:48:18.305Z,3.50
2017-09-04T11:50:46.404Z,3.63
2017-09-04T11:53:14.559Z,3.97
2017-09-04T11:55:42.649Z,4.07
2017-09-04T11:58:10.719Z,3.40
2017-09-04T12:00:38.796Z,3.90
2017-09-04T12:03:06.888Z,4.23
2017-09-04T12:05:34.974Z,4.40
2017-09-04T12:08:03.040Z,4.00
2017-09-04T12:10:31.115Z,3.83
2017-09-04T12:12:59.200Z,4.10
2017-09-04T12:15:27.271Z,4.00
2017-09-04T12:17:55.352Z,3.80
2017-09-04T12:20:23.424Z,3.80
2017-09-04T12:22:51.496Z,3.33
2017-09-04T12:25:19.561Z,3.50
2017-09-04T12:27:47.636Z,3.63
2017-09-04T12:30:15.700Z,4.30
2017-09-04T12:32:43.789Z,3.60
2017-09-04T12:35:11.846Z,4.33
2017-09-04T12:37:39.983Z,4.33
2017-09-04T12:40:08.059Z,4.43
2017-09-04T12:42:36.128Z,4.70
2017-09-04T12:45:04.213Z,4.83
2017-09-04T12:47:32.288Z,4.60
2017-09-04T12:50:00.363Z,4.60
2017-09-04T12:52:28.462Z,3.70
2017-09-04T12:54:56.541Z,4.90
2017-09-04T12:57:24.618Z,4.73
2017-09-04T12:59:52.690Z,4.90
2017-09-04T13:02:20.754Z,4.00
2017-09-04T13:04:48.831Z,5.10
2017-09-04T13:07:16.951Z,4.37
2017-09-04T13:09:45.027Z,3.70
2017-09-04T13:12:18.548Z,4.50
2017-09-04T13:14:52.131Z,4.30
2017-09-04T13:17:25.803Z,4.37
2017-09-04T13:19:59.359Z,4.83
2017-09-04T13:22:32.940Z,4.70
2017-09-04T13:28:25.579Z,3.70
2017-09-04T13:30:59.129Z,3.20
2017-09-04T13:36:50.354Z,3.90
2017-09-04T13:39:24.087Z,3.93
2017-09-04T13:41:57.728Z,3.90
2017-09-04T13:44:32.025Z,3.60
2017-09-04T13:47:05.815Z,3.70
2017-09-04T13:49:34.702Z,3.47
2017-09-04T13:52:08.372Z,3.47
2017-09-04T13:57:55.538Z,3.30
2017-09-04T14:00:29.115Z,3.93
2017-09-04T14:03:00.135Z,3.70
2017-09-04T14:08:37.198Z,3.50
2017-09-04T14:11:10.800Z,3.50
2017-09-04T14:13:46.081Z,4.17
2017-09-04T14:16:19.886Z,3.73
2017-09-04T14:18:47.977Z,3.57
2017-09-04T14:21:16.051Z,4.13
2017-09-04T14:23:44.344Z,5.00
2017-09-04T14:26:12.411Z,3.47
2017-09-04T14:28:40.482Z,3.13
2017-09-04T14:31:08.590Z,3.80
2017-09-04T14:33:36.675Z,3.40
2017-09-04T14:36:04.743Z,3.40
2017-09-04T14:38:32.929Z,3.67
2017-09-04T14:41:01.420Z,3.20
2017-09-04T14:46:38.464Z,3.70
2017-09-04T14:49:06.542Z,3.70
2017-09-04T14:51:34.675Z,3.30
2017-09-04T14:54:02.760Z,3.97
2017-09-04T14:56:30.844Z,3.33
2017-09-04T14:58:59.608Z,3.50
2017-09-04T15:01:27.688Z,4.27
2017-09-04T15:03:55.756Z,3.37
2017-09-04T15:06:23.843Z,3.30
2017-09-04T15:08:51.916Z,3.77
2017-09-04T15:11:19.995Z,3.30
2017-09-04T15:13:48.120Z,3.20
2017-09-04T15:16:16.199Z,4.40
2017-09-04T15:18:44.275Z,3.80
2017-09-04T15:21:12.359Z,3.27
2017-09-04T15:23:40.428Z,3.77
2017-09-04T15:26:08.496Z,3.03
2017-09-04T15:28:37.270Z,3.57
2017-09-04T15:31:05.347Z,3.70
2017-09-04T15:33:33.414Z,3.60
2017-09-04T15:36:01.480Z,3.40
2017-09-04T15:38:29.560Z,3.17
2017-09-04T15:40:57.635Z,3.20
2017-09-04T15:43:25.711Z,3.27
2017-09-04T15:45:53.791Z,2.97
2017-09-04T15:48:21.879Z,3.30
2017-09-04T15:50:49.948Z,3.33
2017-09-04T15:53:18.043Z,3.77
2017-09-04T15:55:46.131Z,2.90
2017-09-04T15:58:14.208Z,3.00
2017-09-04T16:00:43.569Z,3.33
2017-09-04T16:03:11.623Z,3.57
2017-09-04T16:05:41.197Z,3.60
2017-09-04T16:08:19.216Z,3.23
2017-09-04T16:10:47.287Z,2.80
2017-09-04T16:13:18.211Z,3.30
2017-09-04T16:19:02.064Z,3.10
2017-09-04T16:24:47.122Z,3.10
2017-09-04T16:27:20.849Z,3.17
2017-09-04T16:29:54.468Z,3.40
2017-09-04T16:35:50.006Z,3.60
2017-09-04T16:38:28.011Z,3.77
2017-09-04T16:40:59.058Z,3.47
2017-09-04T16:43:28.044Z,3.70
2017-09-04T16:45:59.920Z,4.00
2017-09-04T16:48:27.988Z,3.67
2017-09-04T16:53:57.872Z,3.33
2017-09-04T16:56:26.279Z,3.53
2017-09-04T16:58:54.339Z,3.20
2017-09-04T17:01:22.409Z,4.57
2017-09-04T17:03:50.517Z,4.00
2017-09-04T17:06:18.596Z,4.13
2017-09-04T17:08:46.667Z,4.30
2017-09-04T17:11:19.361Z,4.30
2017-09-04T17:13:47.500Z,3.33
2017-09-04T17:16:20.128Z,3.30
2017-09-04T17:19:04.975Z,3.47
2017-09-04T17:21:33.847Z,3.20
2017-09-04T17:24:12.776Z,3.70
2017-09-04T17:26:40.856Z,4.10
2017-09-04T17:29:08.931Z,4.37
2017-09-04T17:31:37.003Z,4.97
2017-09-04T17:34:05.073Z,4.60
2017-09-04T17:36:33.175Z,4.93
2017-09-04T17:39:01.244Z,5.03
2017-09-04T17:41:29.316Z,4.00
2017-09-04T17:43:57.397Z,4.67
2017-09-04T17:46:25.465Z,5.10
2017-09-04T17:48:53.587Z,5.27
2017-09-04T17:51:21.676Z,5.97
2017-09-04T17:53:49.764Z,4.80
2017-09-04T17:56:17.833Z,5.33
2017-09-04T17:58:45.957Z,6.40
2017-09-04T18:01:14.165Z,7.53
2017-09-04T18:03:42.279Z,5.97
2017-09-04T18:06:10.385Z,6.57
2017-09-04T18:08:38.518Z,6.87
2017-09-04T18:11:06.605Z,6.60
2017-09-04T18:13:34.715Z,7.27
2017-09-04T18:16:02.826Z,6.80
2017-09-04T18:18:30.937Z,7.50
2017-09-04T18:20:59.037Z,6.90
2017-09-04T18:23:27.154Z,7.30
2017-09-04T18:25:55.265Z,6.30
2017-09-04T18:28:23.361Z,6.77
2017-09-04T18:30:51.473Z,7.43
2017-09-04T18:33:19.560Z,6.40
2017-09-04T18:35:47.683Z,6.17
2017-09-04T18:38:15.775Z,7.90
2017-09-04T18:40:43.874Z,7.30
2017-09-04T18:43:11.984Z,7.30
2017-09-04T18:45:40.121Z,7.93
2017-09-04T18:48:08.207Z,7.03
2017-09-04T18:50:36.282Z,7.27
2017-09-04T18:53:04.383Z,6.30
2017-09-04T18:55:32.446Z,5.23
2017-09-04T18:58:00.561Z,5.57
2017-09-04T19:00:28.717Z,6.03
2017-09-04T19:02:56.824Z,6.07
2017-09-04T19:05:24.897Z,6.90
2017-09-04T19:07:53.020Z,6.73
2017-09-04T19:10:21.133Z,6.93
2017-09-04T19:12:49.586Z,6.60
2017-09-04T19:15:17.705Z,5.77
2017-09-04T19:17:45.771Z,6.50
2017-09-04T19:20:13.852Z,6.00
2017-09-04T19:22:41.928Z,5.90
2017-09-04T19:25:10.011Z,6.13
2017-09-04T19:27:38.080Z,6.60
2017-09-04T19:30:06.160Z,6.90
2017-09-04T19:32:34.227Z,6.83
2017-09-04T19:35:02.311Z,6.13
2017-09-04T19:37:30.379Z,6.27
2017-09-04T19:39:58.473Z,5.93
2017-09-04T19:42:26.538Z,5.50
2017-09-04T19:44:54.607Z,5.33
2017-09-04T19:47:22.697Z,6.47
2017-09-04T19:49:50.768Z,6.90
2017-09-04T19:52:18.880Z,8.20
2017-09-04T19:54:46.964Z,8.27
2017-09-04T19:57:15.035Z,6.90
2017-09-04T19:59:43.108Z,7.70
2017-09-04T20:02:11.187Z,6.83
2017-09-04T20:04:39.257Z,7.40
2017-09-04T20:07:07.331Z,7.27
2017-09-04T20:09:35.404Z,7.33
2017-09-04T20:12:03.483Z,8.03
2017-09-04T20:14:31.554Z,7.57
2017-09-04T20:16:59.635Z,7.93
2017-09-04T20:19:27.715Z,7.50
2017-09-04T20:21:55.874Z,7.20
2017-09-04T20:24:23.952Z,7.40
2017-09-04T20:26:52.024Z,6.93
2017-09-04T20:29:20.096Z,6.97
2017-09-04T20:31:48.168Z,6.77
2017-09-04T20:34:16.239Z,8.20
2017-09-04T20:36:44.316Z,16.67
2017-09-04T20:39:12.606Z,8.60
2017-09-04T20:41:40.671Z,7.30
2017-09-04T20:44:09.023Z,8.80
2017-09-04T20:46:37.137Z,8.60
2017-09-04T20:49:05.212Z,8.40
2017-09-04T20:51:33.296Z,8.20
2017-09-04T20:54:01.373Z,16.50
2017-09-04T20:56:29.469Z,16.47
2017-09-04T20:58:57.535Z,13.30
2017-09-04T21:01:25.644Z,8.57
2017-09-04T21:03:53.744Z,7.03
2017-09-04T21:06:21.829Z,8.07
2017-09-04T21:08:49.909Z,8.60
2017-09-04T21:11:18.005Z,9.50
2017-09-04T21:13:46.072Z,8.07
2017-09-04T21:16:14.138Z,8.50
2017-09-04T21:18:42.210Z,8.17
2017-09-04T21:21:10.287Z,8.23
2017-09-04T21:23:38.364Z,8.00
2017-09-04T21:26:06.451Z,7.60
2017-09-04T21:28:34.534Z,8.60
2017-09-04T21:31:02.598Z,7.17
2017-09-04T21:33:30.680Z,7.90
2017-09-04T21:35:58.739Z,7.47
2017-09-04T21:38:26.823Z,7.10
2017-09-04T21:40:54.886Z,7.20
2017-09-04T21:43:22.965Z,8.53
2017-09-04T21:45:51.068Z,8.00
2017-09-04T21:48:19.130Z,8.27
2017-09-04T21:50:47.220Z,8.03
2017-09-04T21:53:15.315Z,7.67
2017-09-04T21:55:43.404Z,8.67
2017-09-04T21:58:11.474Z,8.50
2017-09-04T22:00:39.556Z,8.77
2017-09-04T22:03:07.636Z,9.07
2017-09-04T22:05:35.739Z,9.30
2017-09-04T22:08:03.827Z,9.80
2017-09-04T22:10:31.936Z,8.70
2017-09-04T22:13:00.070Z,8.03
2017-09-04T22:15:28.165Z,7.97
2017-09-04T22:17:56.246Z,8.67
2017-09-04T22:20:24.344Z,7.23
2017-09-04T22:22:52.449Z,8.50
2017-09-04T22:25:20.531Z,8.70
2017-09-04T22:27:48.654Z,8.77
2017-09-04T22:30:16.765Z,9.40
2017-09-04T22:32:44.868Z,9.33
2017-09-04T22:35:12.966Z,10.30
2017-09-04T22:37:41.061Z,8.83
2017-09-04T22:40:09.171Z,8.50
2017-09-04T22:42:37.251Z,8.83
2017-09-04T22:45:05.360Z,9.50
2017-09-04T22:47:33.485Z,9.50
2017-09-04T22:50:01.565Z,7.93
2017-09-04T22:52:29.642Z,9.40
2017-09-04T22:54:57.750Z,8.97
2017-09-04T22:57:25.832Z,8.57
2017-09-04T22:59:53.920Z,10.53
2017-09-04T23:02:22.024Z,9.87
2017-09-04T23:04:50.131Z,9.27
2017-09-04T23:07:18.238Z,10.27
2017-09-04T23:09:46.330Z,9.80
2017-09-04T23:12:14.448Z,9.80
2017-09-04T23:14:42.538Z,9.10
2017-09-04T23:17:10.645Z,9.70
2017-09-04T23:19:38.768Z,9.90
2017-09-04T23:22:06.848Z,9.57
2017-09-04T23:24:34.958Z,10.67
2017-09-04T23:27:03.052Z,11.10
2017-09-04T23:29:31.153Z,10.60
2017-09-04T23:31:59.272Z,11.07
2017-09-04T23:34:27.359Z,10.60
2017-09-04T23:36:55.476Z,10.50
2017-09-04T23:39:23.572Z,10.83
2017-09-04T23:41:51.679Z,9.50
2017-09-04T23:44:19.866Z,9.50
2017-09-04T23:46:47.982Z,10.50
2017-09-04T23:49:16.066Z,10.20
2017-09-04T23:51:44.181Z,9.70
2017-09-04T23:54:12.263Z,10.87
2017-09-04T23:56:40.381Z,9.60
2017-09-04T23:59:08.484Z,10.70
